createdAt,value
2023-03-07T00:01:25.208Z,18.17
2023-03-07T00:03:51.966Z,16.48
2023-03-07T00:06:18.740Z,16.30
2023-03-07T00:08:45.334Z,17.05
2023-03-07T00:11:12.568Z,16.23
2023-03-07T00:13:39.249Z,15.95
2023-03-07T00:16:12.327Z,15.10
2023-03-07T00:18:38.861Z,13.82
2023-03-07T00:21:10.586Z,14.13
2023-03-07T00:23:40.048Z,13.63
2023-03-07T00:26:07.826Z,14.32
2023-03-07T00:28:35.191Z,12.00
2023-03-07T00:31:04.660Z,14.55
2023-03-07T00:33:31.643Z,12.68
2023-03-07T00:36:02.291Z,11.48
2023-03-07T00:38:30.592Z,13.07
2023-03-07T00:41:08.104Z,11.55
2023-03-07T00:43:35.562Z,12.98
2023-03-07T00:46:02.276Z,12.27
2023-03-07T00:48:29.475Z,12.00
2023-03-07T00:50:57.076Z,12.15
2023-03-07T00:53:25.087Z,11.60
2023-03-07T00:56:03.395Z,10.73
2023-03-07T00:58:33.226Z,12.32
2023-03-07T01:01:00.819Z,10.30
2023-03-07T01:03:28.303Z,9.75
2023-03-07T01:05:55.743Z,11.45
2023-03-07T01:08:23.309Z,10.68
2023-03-07T01:10:50.628Z,9.80
2023-03-07T01:13:19.463Z,12.25
2023-03-07T01:15:46.286Z,9.95
2023-03-07T01:18:13.170Z,11.60
2023-03-07T01:20:41.502Z,9.75
2023-03-07T01:23:08.476Z,10.93
2023-03-07T01:25:42.718Z,10.05
2023-03-07T01:28:13.487Z,9.82
2023-03-07T01:30:40.769Z,9.57
2023-03-07T01:33:07.354Z,9.15
2023-03-07T01:35:38.867Z,8.32
2023-03-07T01:38:05.636Z,7.70
2023-03-07T01:40:33.318Z,7.97
2023-03-07T01:43:29.505Z,7.05
2023-03-07T01:46:17.751Z,5.90
2023-03-07T01:48:55.605Z,6.13
2023-03-07T01:51:22.886Z,6.78
2023-03-07T01:53:53.223Z,7.70
2023-03-07T01:56:21.703Z,5.68
2023-03-07T01:58:49.278Z,6.22
2023-03-07T02:01:17.351Z,5.28
2023-03-07T02:03:49.792Z,6.32
2023-03-07T02:06:17.372Z,5.90
2023-03-07T02:08:45.621Z,6.57
2023-03-07T02:11:12.629Z,6.10
2023-03-07T02:13:39.426Z,6.55
2023-03-07T02:16:07.596Z,7.25
2023-03-07T02:18:38.614Z,6.28
2023-03-07T02:21:17.648Z,7.95
2023-03-07T02:23:53.412Z,7.47
2023-03-07T02:26:22.978Z,7.13
2023-03-07T02:28:49.760Z,7.40
2023-03-07T02:31:16.334Z,7.45
2023-03-07T02:33:42.827Z,6.22
2023-03-07T02:36:34.789Z,7.03
2023-03-07T02:39:31.612Z,7.38
2023-03-07T02:42:08.744Z,8.20
2023-03-07T02:44:45.856Z,6.63
2023-03-07T02:47:13.150Z,5.70
2023-03-07T02:49:39.816Z,6.13
2023-03-07T02:52:07.097Z,6.78
2023-03-07T02:54:33.957Z,5.65
2023-03-07T02:57:00.358Z,6.53
2023-03-07T02:59:26.861Z,5.95
2023-03-07T03:01:53.774Z,6.50
2023-03-07T03:04:20.546Z,6.35
2023-03-07T03:06:47.358Z,6.60
2023-03-07T03:09:14.418Z,5.65
2023-03-07T03:11:40.829Z,6.03
2023-03-07T03:14:07.484Z,5.68
2023-03-07T03:16:33.967Z,6.65
2023-03-07T03:19:00.376Z,5.78
2023-03-07T03:21:27.024Z,6.55
2023-03-07T03:23:54.942Z,5.32
2023-03-07T03:26:21.421Z,6.00
2023-03-07T03:28:48.374Z,5.75
2023-03-07T03:31:15.581Z,5.13
2023-03-07T03:33:46.754Z,5.38
2023-03-07T03:36:16.937Z,5.38
2023-03-07T03:38:46.090Z,7.30
2023-03-07T03:41:17.779Z,7.70
2023-03-07T03:43:46.547Z,6.53
2023-03-07T03:46:13.730Z,5.95
2023-03-07T03:48:40.654Z,5.95
2023-03-07T03:51:10.472Z,6.78
2023-03-07T03:53:38.407Z,6.15
2023-03-07T03:56:08.258Z,6.50
2023-03-07T03:58:35.757Z,6.65
2023-03-07T04:01:05.694Z,7.45
2023-03-07T04:03:37.538Z,6.82
2023-03-07T04:06:06.551Z,8.82
2023-03-07T04:08:34.148Z,7.53
2023-03-07T04:11:00.563Z,7.15
2023-03-07T04:13:27.335Z,7.68
2023-03-07T04:15:56.687Z,7.68
2023-03-07T04:18:24.140Z,8.48
2023-03-07T04:20:52.164Z,8.48
2023-03-07T04:23:21.486Z,9.45
2023-03-07T04:25:52.744Z,9.75
2023-03-07T04:28:19.563Z,8.75
2023-03-07T04:30:46.956Z,9.00
2023-03-07T04:33:13.432Z,11.07
2023-03-07T04:35:39.923Z,10.45
2023-03-07T04:38:07.103Z,9.98
2023-03-07T04:40:34.274Z,9.63
2023-03-07T04:43:01.295Z,9.82
2023-03-07T04:45:27.927Z,10.27
2023-03-07T04:47:54.340Z,11.55
2023-03-07T04:50:20.948Z,12.77
2023-03-07T04:52:47.817Z,13.07
2023-03-07T04:55:14.991Z,12.05
2023-03-07T04:57:41.862Z,14.77
2023-03-07T05:00:10.056Z,13.68
2023-03-07T05:02:37.949Z,14.15
2023-03-07T05:05:05.344Z,15.95
2023-03-07T05:07:32.710Z,14.82
2023-03-07T05:09:59.291Z,15.27
2023-03-07T05:12:25.718Z,16.00
2023-03-07T05:14:53.275Z,17.13
2023-03-07T05:17:19.897Z,17.27
2023-03-07T05:19:46.585Z,15.27
2023-03-07T05:22:13.478Z,16.52
2023-03-07T05:24:40.077Z,14.48
2023-03-07T05:27:06.919Z,15.38
2023-03-07T05:29:33.331Z,17.05
2023-03-07T05:32:01.429Z,16.50
2023-03-07T05:34:28.275Z,16.20
2023-03-07T05:36:55.021Z,15.15
2023-03-07T05:39:21.550Z,15.07
2023-03-07T05:41:48.455Z,14.52
2023-03-07T05:44:14.931Z,15.38
2023-03-07T05:46:41.607Z,14.20
2023-03-07T05:49:08.968Z,16.38
2023-03-07T05:51:35.378Z,14.20
2023-03-07T05:54:01.846Z,14.38
2023-03-07T05:56:29.372Z,14.85
2023-03-07T05:58:56.523Z,14.45
2023-03-07T06:01:23.011Z,14.68
2023-03-07T06:03:49.472Z,15.10
2023-03-07T06:06:15.890Z,16.60
2023-03-07T06:08:43.426Z,16.55
2023-03-07T06:11:10.703Z,16.75
2023-03-07T06:13:38.859Z,14.57
2023-03-07T06:16:05.548Z,14.35
2023-03-07T06:18:32.025Z,14.50
2023-03-07T06:20:59.593Z,17.17
2023-03-07T06:23:30.916Z,15.77
2023-03-07T06:25:57.796Z,16.27
2023-03-07T06:28:24.876Z,13.80
2023-03-07T06:30:51.464Z,15.95
2023-03-07T06:33:18.276Z,16.17
2023-03-07T06:35:45.211Z,16.15
2023-03-07T06:38:15.732Z,16.05
2023-03-07T06:40:43.429Z,17.75
2023-03-07T06:43:12.334Z,17.33
2023-03-07T06:45:38.800Z,17.65
2023-03-07T06:48:05.880Z,18.38
2023-03-07T06:50:35.493Z,19.38
2023-03-07T06:53:03.841Z,22.23
2023-03-07T06:55:31.486Z,19.60
2023-03-07T06:57:58.226Z,19.95
2023-03-07T07:00:25.276Z,17.48
2023-03-07T07:02:51.798Z,19.73
2023-03-07T07:05:18.290Z,18.75
2023-03-07T07:07:45.497Z,22.10
2023-03-07T07:10:13.120Z,20.05
2023-03-07T07:12:40.132Z,19.35
2023-03-07T07:15:07.310Z,23.02
2023-03-07T07:17:38.909Z,17.33
2023-03-07T07:20:07.364Z,17.85
2023-03-07T07:22:34.074Z,17.40
2023-03-07T07:25:00.471Z,19.42
2023-03-07T07:27:28.237Z,20.55
2023-03-07T07:29:56.035Z,19.35
2023-03-07T07:32:23.021Z,22.45
2023-03-07T07:34:49.678Z,18.98
2023-03-07T07:37:16.322Z,20.15
2023-03-07T07:39:43.890Z,21.77
2023-03-07T07:42:13.353Z,19.85
2023-03-07T07:44:52.144Z,20.50
2023-03-07T07:47:19.975Z,23.10
2023-03-07T07:49:46.399Z,24.50
2023-03-07T07:52:12.846Z,24.85
2023-03-07T07:54:39.642Z,21.73
2023-03-07T07:57:06.177Z,22.30
2023-03-07T07:59:34.134Z,20.27
2023-03-07T08:02:01.575Z,21.88
2023-03-07T08:04:28.417Z,22.38
2023-03-07T08:06:55.089Z,19.75
2023-03-07T08:09:21.550Z,20.92
2023-03-07T08:11:48.418Z,21.90
2023-03-07T08:14:14.868Z,21.45
2023-03-07T08:16:41.273Z,19.70
2023-03-07T08:19:07.718Z,21.48
2023-03-07T08:21:34.135Z,19.60
2023-03-07T08:24:00.812Z,26.23
2023-03-07T08:26:27.257Z,16.90
2023-03-07T08:28:53.686Z,9.43
2023-03-07T08:31:23.783Z,9.27
2023-03-07T08:33:51.385Z,8.38
2023-03-07T08:36:18.256Z,6.43
2023-03-07T08:38:50.662Z,6.90
2023-03-07T08:41:18.606Z,6.97
2023-03-07T08:43:45.006Z,5.35
2023-03-07T08:46:11.788Z,5.32
2023-03-07T08:48:38.913Z,6.05
2023-03-07T08:51:11.407Z,5.80
2023-03-07T08:53:38.289Z,4.80
2023-03-07T08:56:09.659Z,4.53
2023-03-07T08:58:36.931Z,4.63
2023-03-07T09:01:03.975Z,5.80
2023-03-07T09:03:30.538Z,4.90
2023-03-07T09:05:57.054Z,4.50
2023-03-07T09:08:23.504Z,4.70
2023-03-07T09:10:49.967Z,3.65
2023-03-07T09:13:18.456Z,3.85
2023-03-07T09:15:45.456Z,2.90
2023-03-07T09:18:12.292Z,3.17
2023-03-07T09:20:39.144Z,3.00
2023-03-07T09:23:08.158Z,3.50
2023-03-07T09:25:34.558Z,3.50
2023-03-07T09:28:00.971Z,3.03
2023-03-07T09:30:28.713Z,4.45
2023-03-07T09:32:55.191Z,4.03
2023-03-07T09:35:21.741Z,2.92
2023-03-07T09:37:48.124Z,4.53
2023-03-07T09:40:19.831Z,6.38
2023-03-07T09:43:16.618Z,3.70
2023-03-07T09:45:53.860Z,4.05
2023-03-07T09:48:51.334Z,3.08
2023-03-07T09:51:39.953Z,4.65
2023-03-07T09:54:12.996Z,3.63
2023-03-07T09:59:24.981Z,2.88
2023-03-07T10:02:00.970Z,3.72
2023-03-07T10:04:34.591Z,3.97
2023-03-07T10:09:29.244Z,3.67
2023-03-07T10:11:59.043Z,4.45
2023-03-07T10:14:46.553Z,3.58
2023-03-07T10:17:38.040Z,3.47
2023-03-07T10:20:08.368Z,4.57
2023-03-07T10:22:51.663Z,3.65
2023-03-07T10:25:40.774Z,4.88
2023-03-07T10:28:29.949Z,4.68
2023-03-07T10:31:10.318Z,5.50
2023-03-07T10:33:40.426Z,5.13
2023-03-07T10:36:12.532Z,6.07
2023-03-07T10:38:52.904Z,4.95
2023-03-07T10:41:21.554Z,4.53
2023-03-07T10:43:50.102Z,5.57
2023-03-07T10:46:26.568Z,4.90
2023-03-07T10:49:14.989Z,7.25
2023-03-07T10:52:11.876Z,5.63
2023-03-07T10:54:38.840Z,5.60
2023-03-07T10:57:05.424Z,4.78
2023-03-07T10:59:32.458Z,8.32
2023-03-07T11:02:00.894Z,5.43
2023-03-07T11:04:30.223Z,4.13
2023-03-07T11:06:59.322Z,4.68
2023-03-07T11:09:34.171Z,4.40
2023-03-07T11:12:13.182Z,4.50
2023-03-07T11:15:18.117Z,4.07
2023-03-07T11:17:47.609Z,5.43
2023-03-07T11:20:47.568Z,3.67
2023-03-07T11:23:20.230Z,4.65
2023-03-07T11:25:46.706Z,6.93
2023-03-07T11:28:34.498Z,5.57
2023-03-07T11:31:27.112Z,5.32
2023-03-07T11:34:32.987Z,5.97
2023-03-07T11:37:17.954Z,5.18
2023-03-07T11:39:55.851Z,6.22
2023-03-07T11:42:27.442Z,5.45
2023-03-07T11:45:16.715Z,4.53
2023-03-07T11:47:54.716Z,7.75
2023-03-07T11:50:27.034Z,5.60
2023-03-07T11:53:17.813Z,7.30
2023-03-07T11:56:03.074Z,7.68
2023-03-07T11:58:46.118Z,8.10
2023-03-07T12:01:37.108Z,6.20
2023-03-07T12:04:31.158Z,5.45
2023-03-07T12:07:06.887Z,4.63
2023-03-07T12:10:05.626Z,3.95
2023-03-07T12:12:54.098Z,3.75
2023-03-07T12:15:53.061Z,4.53
2023-03-07T12:18:34.387Z,5.53
2023-03-07T12:21:12.087Z,4.38
2023-03-07T12:24:01.407Z,4.82
2023-03-07T12:26:59.411Z,4.60
2023-03-07T12:29:49.982Z,5.43
2023-03-07T12:32:22.682Z,6.95
2023-03-07T12:35:14.829Z,7.40
2023-03-07T12:37:47.873Z,7.50
2023-03-07T12:40:21.587Z,8.10
2023-03-07T12:42:57.962Z,10.93
2023-03-07T12:45:28.351Z,7.55
2023-03-07T12:47:57.777Z,5.28
2023-03-07T12:50:51.653Z,5.85
2023-03-07T12:56:17.302Z,4.10
2023-03-07T12:58:52.920Z,6.07
2023-03-07T13:01:28.205Z,6.57
2023-03-07T13:04:02.210Z,6.70
2023-03-07T13:06:29.657Z,4.50
2023-03-07T13:09:01.311Z,4.70
2023-03-07T13:11:30.308Z,4.63
2023-03-07T13:14:03.769Z,4.13
2023-03-07T13:19:36.622Z,4.70
2023-03-07T13:22:15.868Z,5.72
2023-03-07T13:24:47.228Z,4.82
2023-03-07T13:27:22.340Z,4.13
2023-03-07T13:30:09.872Z,4.78
2023-03-07T13:32:51.545Z,5.88
2023-03-07T13:35:38.910Z,5.85
2023-03-07T13:38:23.871Z,5.32
2023-03-07T13:40:55.607Z,6.43
2023-03-07T13:43:27.684Z,5.82
2023-03-07T13:45:58.424Z,6.57
2023-03-07T13:48:24.849Z,4.53
2023-03-07T13:50:51.214Z,4.40
2023-03-07T13:53:20.019Z,6.05
2023-03-07T13:55:57.186Z,6.50
2023-03-07T13:58:32.871Z,8.98
2023-03-07T14:01:03.899Z,6.60
2023-03-07T14:03:38.470Z,7.50
2023-03-07T14:06:16.790Z,4.97
2023-03-07T14:08:44.721Z,7.90
2023-03-07T14:11:53.263Z,5.72
2023-03-07T14:14:38.326Z,5.25
2023-03-07T14:17:35.327Z,5.70
2023-03-07T14:20:23.781Z,5.00
2023-03-07T14:23:14.837Z,4.32
2023-03-07T14:25:46.998Z,5.53
2023-03-07T14:28:27.841Z,4.63
2023-03-07T14:30:59.738Z,5.50
2023-03-07T14:33:33.892Z,5.65
2023-03-07T14:36:01.745Z,5.10
2023-03-07T14:38:28.579Z,5.93
2023-03-07T14:41:19.573Z,5.70
2023-03-07T14:44:06.236Z,5.88
2023-03-07T14:46:56.749Z,6.70
2023-03-07T14:49:45.800Z,5.75
2023-03-07T14:52:21.470Z,7.75
2023-03-07T14:54:56.635Z,5.97
2023-03-07T14:57:29.972Z,6.13
2023-03-07T15:00:24.649Z,8.02
2023-03-07T15:02:58.298Z,9.27
2023-03-07T15:05:31.032Z,8.23
2023-03-07T15:07:58.262Z,8.05
2023-03-07T15:10:30.536Z,11.98
2023-03-07T15:12:57.946Z,12.75
2023-03-07T15:15:36.981Z,14.45
2023-03-07T15:18:19.404Z,21.20
2023-03-07T15:20:46.232Z,6.40
2023-03-07T15:23:27.616Z,12.13
2023-03-07T15:26:01.836Z,11.98
2023-03-07T15:28:33.190Z,22.52
2023-03-07T15:31:00.002Z,12.13
2023-03-07T15:33:30.554Z,12.25
2023-03-07T15:36:13.517Z,19.55
2023-03-07T15:38:42.239Z,21.98
2023-03-07T15:41:35.860Z,28.65
2023-03-07T15:44:11.562Z,27.95
2023-03-07T15:46:58.837Z,20.67
2023-03-07T15:49:34.177Z,11.98
2023-03-07T15:52:01.551Z,13.52
2023-03-07T15:54:35.122Z,18.27
2023-03-07T15:57:05.127Z,23.73
2023-03-07T15:59:35.444Z,15.73
2023-03-07T16:02:33.215Z,16.83
2023-03-07T16:05:01.333Z,16.70
2023-03-07T16:07:27.886Z,17.00
2023-03-07T16:09:54.657Z,11.23
2023-03-07T16:12:23.670Z,12.00
2023-03-07T16:14:52.745Z,6.25
2023-03-07T16:17:28.116Z,4.43
2023-03-07T16:19:54.594Z,3.95
2023-03-07T16:22:21.296Z,4.13
2023-03-07T16:24:47.673Z,3.60
2023-03-07T16:27:17.572Z,2.47
2023-03-07T16:29:45.032Z,4.07
2023-03-07T16:32:14.873Z,4.70
2023-03-07T16:34:44.024Z,3.25
2023-03-07T16:37:10.880Z,3.55
2023-03-07T16:39:37.800Z,5.18
2023-03-07T16:42:06.703Z,4.30
2023-03-07T16:44:38.382Z,2.72
2023-03-07T16:47:07.419Z,4.18
2023-03-07T16:49:34.251Z,4.05
2023-03-07T16:52:06.054Z,5.05
2023-03-07T16:54:33.878Z,4.05
2023-03-07T16:57:01.691Z,5.65
2023-03-07T16:59:34.669Z,11.75
2023-03-07T17:02:02.006Z,9.27
2023-03-07T17:04:28.449Z,10.50
2023-03-07T17:07:04.453Z,10.63
2023-03-07T17:09:31.104Z,12.95
2023-03-07T17:11:58.197Z,9.40
2023-03-07T17:14:24.657Z,6.72
2023-03-07T17:16:51.107Z,6.60
2023-03-07T17:19:26.612Z,6.88
2023-03-07T17:21:53.110Z,7.43
2023-03-07T17:24:19.901Z,5.47
2023-03-07T17:26:47.667Z,6.15
2023-03-07T17:29:39.194Z,5.57
2023-03-07T17:32:06.267Z,8.27
2023-03-07T17:34:34.427Z,9.77
2023-03-07T17:37:01.133Z,17.23
2023-03-07T17:39:29.645Z,14.35
2023-03-07T17:41:57.164Z,12.43
2023-03-07T17:44:24.956Z,18.75
2023-03-07T17:46:52.809Z,14.13
2023-03-07T17:49:20.387Z,14.93
2023-03-07T17:51:48.591Z,12.88
2023-03-07T17:54:16.011Z,14.43
2023-03-07T17:56:42.583Z,10.50
2023-03-07T17:59:09.379Z,15.35
2023-03-07T18:01:36.041Z,10.10
2023-03-07T18:04:05.043Z,11.13
2023-03-07T18:06:33.878Z,11.60
2023-03-07T18:09:01.116Z,15.32
2023-03-07T18:11:28.041Z,16.67
2023-03-07T18:13:54.414Z,11.90
2023-03-07T18:16:21.011Z,24.77
2023-03-07T18:18:58.739Z,12.93
2023-03-07T18:21:29.428Z,17.45
2023-03-07T18:23:55.827Z,41.00
2023-03-07T18:26:22.279Z,55.05
2023-03-07T18:28:49.764Z,42.53
2023-03-07T18:31:30.263Z,41.80
2023-03-07T18:33:56.773Z,23.02
2023-03-07T18:36:26.869Z,54.97
2023-03-07T18:38:53.246Z,30.38
2023-03-07T18:41:25.253Z,20.10
2023-03-07T18:43:56.589Z,20.13
2023-03-07T18:46:25.351Z,23.50
2023-03-07T18:48:52.335Z,16.90
2023-03-07T18:51:24.756Z,13.25
2023-03-07T18:53:53.570Z,14.73
2023-03-07T18:56:20.466Z,16.58
2023-03-07T18:58:48.340Z,13.50
2023-03-07T19:01:23.209Z,13.45
2023-03-07T19:03:51.581Z,16.90
2023-03-07T19:06:19.409Z,13.32
2023-03-07T19:08:46.068Z,14.05
2023-03-07T19:11:14.397Z,13.35
2023-03-07T19:13:41.538Z,13.13
2023-03-07T19:16:15.454Z,14.07
2023-03-07T19:18:43.160Z,12.63
2023-03-07T19:21:12.545Z,14.75
2023-03-07T19:23:39.750Z,15.07
2023-03-07T19:26:08.728Z,15.23
2023-03-07T19:28:35.978Z,13.35
2023-03-07T19:31:31.328Z,13.18
2023-03-07T19:33:58.538Z,13.20
2023-03-07T19:36:27.595Z,14.32
2023-03-07T19:38:57.529Z,12.75
2023-03-07T19:41:25.757Z,12.10
2023-03-07T19:43:52.646Z,13.88
2023-03-07T19:46:20.694Z,15.32
2023-03-07T19:48:47.637Z,13.23
2023-03-07T19:51:15.849Z,11.55
2023-03-07T19:53:43.269Z,13.02
2023-03-07T19:56:12.021Z,12.57
2023-03-07T19:58:39.203Z,14.30
2023-03-07T20:01:10.528Z,14.00
2023-03-07T20:03:37.591Z,14.25
2023-03-07T20:06:05.499Z,12.02
2023-03-07T20:08:33.438Z,11.02
2023-03-07T20:11:13.817Z,11.93
2023-03-07T20:13:41.322Z,12.88
2023-03-07T20:16:10.388Z,12.13
2023-03-07T20:18:37.225Z,10.63
2023-03-07T20:21:14.381Z,10.52
2023-03-07T20:23:44.272Z,9.85
2023-03-07T20:26:18.885Z,26.30
2023-03-07T20:28:45.836Z,41.80
2023-03-07T20:31:13.172Z,32.42
2023-03-07T20:33:47.354Z,39.47
2023-03-07T20:36:29.561Z,39.72
2023-03-07T20:38:58.173Z,20.73
2023-03-07T20:41:32.601Z,16.70
2023-03-07T20:44:01.304Z,45.35
2023-03-07T20:46:28.254Z,37.88
2023-03-07T20:48:55.263Z,12.43
2023-03-07T20:51:24.001Z,15.68
2023-03-07T20:53:58.625Z,12.30
2023-03-07T20:56:26.990Z,20.17
2023-03-07T20:58:54.468Z,23.50
2023-03-07T21:01:22.252Z,24.02
2023-03-07T21:03:49.217Z,41.10
2023-03-07T21:06:16.444Z,27.65
2023-03-07T21:08:43.406Z,22.83
2023-03-07T21:11:14.081Z,16.77
2023-03-07T21:13:42.272Z,17.55
2023-03-07T21:16:14.322Z,20.77
2023-03-07T21:18:40.876Z,30.50
2023-03-07T21:21:09.991Z,19.88
2023-03-07T21:23:37.090Z,15.10
2023-03-07T21:26:04.529Z,17.55
2023-03-07T21:28:32.112Z,13.77
2023-03-07T21:31:03.094Z,15.70
2023-03-07T21:33:30.236Z,14.55
2023-03-07T21:35:57.237Z,15.02
2023-03-07T21:38:24.159Z,13.98
2023-03-07T21:40:50.942Z,14.30
2023-03-07T21:43:17.428Z,15.45
2023-03-07T21:45:44.123Z,13.73
2023-03-07T21:48:11.058Z,15.65
2023-03-07T21:50:41.673Z,18.23
2023-03-07T21:53:09.328Z,16.60
2023-03-07T21:55:36.136Z,15.57
2023-03-07T21:58:03.276Z,16.33
2023-03-07T22:00:30.090Z,17.80
2023-03-07T22:02:57.334Z,17.30
2023-03-07T22:05:24.127Z,17.23
2023-03-07T22:07:51.041Z,18.92
2023-03-07T22:10:18.417Z,20.50
2023-03-07T22:12:44.870Z,21.60
2023-03-07T22:15:11.409Z,18.70
2023-03-07T22:17:37.823Z,18.48
2023-03-07T22:20:05.124Z,17.05
2023-03-07T22:22:31.529Z,17.85
2023-03-07T22:24:58.092Z,19.98
2023-03-07T22:27:24.592Z,18.52
2023-03-07T22:29:50.968Z,18.90
2023-03-07T22:32:17.774Z,19.27
2023-03-07T22:34:44.172Z,16.95
2023-03-07T22:37:10.860Z,17.45
2023-03-07T22:39:37.231Z,18.33
2023-03-07T22:42:03.799Z,18.48
2023-03-07T22:44:30.235Z,16.23
2023-03-07T22:46:56.631Z,17.92
2023-03-07T22:49:23.011Z,17.02
2023-03-07T22:51:49.386Z,21.27
2023-03-07T22:54:15.780Z,20.00
2023-03-07T22:56:42.140Z,18.23
2023-03-07T22:59:09.819Z,19.63
2023-03-07T23:01:36.562Z,23.00
2023-03-07T23:04:06.763Z,20.90
2023-03-07T23:06:34.383Z,19.95
2023-03-07T23:09:02.227Z,21.70
2023-03-07T23:11:30.490Z,18.88
2023-03-07T23:13:57.551Z,20.13
2023-03-07T23:16:29.440Z,21.75
2023-03-07T23:18:57.659Z,22.52
2023-03-07T23:21:29.006Z,20.75
2023-03-07T23:23:56.625Z,20.08
2023-03-07T23:26:28.722Z,22.25
2023-03-07T23:28:55.994Z,20.95
2023-03-07T23:31:28.947Z,20.30
2023-03-07T23:34:00.914Z,23.70
2023-03-07T23:36:29.083Z,22.95
2023-03-07T23:38:56.746Z,22.75
2023-03-07T23:41:23.643Z,24.38
2023-03-07T23:43:54.262Z,22.05
2023-03-07T23:46:20.709Z,24.70
2023-03-07T23:48:47.309Z,20.55
2023-03-07T23:51:14.539Z,21.90
2023-03-07T23:53:41.291Z,20.80
2023-03-07T23:56:09.163Z,20.08
2023-03-07T23:58:36.044Z,21.73
